PWSweather.com
Personal Weather Stations
Station Observations
CW6888
Sola Virtus Observatory, Norrisville, MD

Sola Virtus ObservatoryNorrisville, MD

Lat: 39.7025, Lon: -76.5447

Elevation: 738

Station Type: Davis Vantage Pro2

http://sola-virtus-observatory.org

Latest ConditionsUpdated 12:40:00 PM EDT Sunday, Sep 23, 2018
Currently Today's Max Today's Min Today's Average
Temperature 59.3°F15.2°C 59.3°F15.2°C 56.0°F13.3°C 57.3°F14.1°C
Dew Point 58.2°F14.6°C 58.2°F14.6°C 53.5°F11.9°C 54.9°F12.7°C
Winds Calm Calm 3.0 mph -4.8 kmh - - 1.1 mph 1.8 kmh
Wind Gusts 2.0 mph3.2 kmh 6.0 mph9.7 kmh - -
Humidity 96% 96% 88% 92%
Pressure 30.22 in1023.4 mb 30.22 in1023.4 mb 30.17 in1021.7 mb -
Precipitation - 0.29 in7.4 mm - -
Hour Temp Dew Point Humidity Winds Wind Gusts Pressure Precip Precip Rate Daily Precip Total
12:40 PM 59.3°F15.2°C 58.2°F14.6°C 96% Calm Calm 2.0 mph3.2 kmh 30.22 in1023.4 mb 0.10 in2.5 mm 0.03 in0.8 mm 0.29 in7.4 mm
12:20 PM 59.0°F15.0°C 57.9°F14.4°C 96% Calm Calm 4.0 mph6.4 kmh 30.22 in1023.4 mb 0.09 in2.3 mm 0.03 in0.8 mm 0.26 in6.6 mm
12:00 PM 58.9°F14.9°C 57.8°F14.3°C 96% Calm Calm 3.0 mph4.8 kmh 30.22 in1023.4 mb 0.08 in2.0 mm 0.05 in1.3 mm 0.23 in5.8 mm
11:40 AM 58.6°F14.8°C 57.2°F14.0°C 95% 1.0 mph NE1.6 kmh NE 3.0 mph4.8 kmh 30.22 in1023.4 mb 0.05 in1.3 mm 0.03 in0.8 mm 0.19 in4.8 mm
11:20 AM 58.7°F14.8°C 57.3°F14.1°C 95% Calm Calm 4.0 mph6.4 kmh 30.22 in1023.4 mb 0.04 in1.0 mm 0.00 in0.0 mm 0.17 in4.3 mm
11:00 AM 58.5°F14.7°C 57.1°F13.9°C 95% Calm Calm -- 30.22 in1023.4 mb 0.04 in1.0 mm 0.00 in0.0 mm 0.15 in3.8 mm
10:40 AM 58.3°F14.6°C 56.9°F13.8°C 95% Calm Calm 3.0 mph4.8 kmh 30.22 in1023.4 mb 0.04 in1.0 mm 0.03 in0.8 mm 0.14 in3.6 mm
10:20 AM 58.0°F14.4°C 56.6°F13.7°C 95% 1.0 mph NE1.6 kmh NE 4.0 mph6.4 kmh 30.22 in1023.4 mb 0.03 in0.8 mm 0.00 in0.0 mm 0.13 in3.3 mm
10:00 AM 57.7°F14.3°C 56.0°F13.3°C 94% 2.0 mph NE3.2 kmh NE 5.0 mph8.0 kmh 30.22 in1023.4 mb 0.03 in0.8 mm 0.02 in0.5 mm 0.11 in2.8 mm
09:40 AM 57.6°F14.2°C 56.2°F13.4°C 95% 2.0 mph NE3.2 kmh NE 3.0 mph4.8 kmh 30.21 in1023.0 mb 0.02 in0.5 mm 0.00 in0.0 mm 0.10 in2.5 mm
09:20 AM 57.1°F13.9°C 55.4°F13.0°C 94% Calm Calm 3.0 mph4.8 kmh 30.20 in1022.7 mb 0.03 in0.8 mm 0.06 in1.5 mm 0.10 in2.5 mm
09:00 AM 56.9°F13.8°C 55.2°F12.9°C 94% 1.0 mph NNE1.6 kmh NNE 3.0 mph4.8 kmh 30.20 in1022.7 mb 0.01 in0.3 mm 0.00 in0.0 mm 0.08 in2.0 mm
08:40 AM 56.7°F13.7°C 55.0°F12.8°C 94% 2.0 mph NE3.2 kmh NE 4.0 mph6.4 kmh 30.19 in1022.4 mb 0.02 in0.5 mm 0.03 in0.8 mm 0.08 in2.0 mm
08:20 AM 56.5°F13.6°C 54.8°F12.7°C 94% 1.0 mph NE1.6 kmh NE 4.0 mph6.4 kmh 30.18 in1022.0 mb 0.01 in0.3 mm 0.00 in0.0 mm 0.07 in1.8 mm
08:00 AM 56.4°F13.6°C 54.7°F12.6°C 94% 1.0 mph NE1.6 kmh NE 3.0 mph4.8 kmh 30.18 in1022.0 mb 0.06 in1.5 mm 0.02 in0.5 mm 0.07 in1.8 mm
07:40 AM 56.1°F13.4°C 54.4°F12.4°C 94% Calm Calm 2.0 mph3.2 kmh 30.18 in1022.0 mb 0.05 in1.3 mm 0.03 in0.8 mm 0.06 in1.5 mm
07:20 AM 56.0°F13.3°C 54.0°F12.2°C 93% Calm Calm 2.0 mph3.2 kmh 30.18 in1022.0 mb 0.04 in1.0 mm 0.09 in2.3 mm 0.05 in1.3 mm
07:00 AM 56.0°F13.3°C 54.0°F12.2°C 93% 1.0 mph N1.6 kmh N 3.0 mph4.8 kmh 30.18 in1022.0 mb 0.01 in0.3 mm 0.00 in0.0 mm 0.01 in0.3 mm
06:40 AM 56.2°F13.4°C 54.2°F12.3°C 93% 1.0 mph N1.6 kmh N 2.0 mph3.2 kmh 30.18 in1022.0 mb 0.01 in0.3 mm 0.00 in0.0 mm 0.01 in0.3 mm
06:20 AM 56.4°F13.6°C 54.1°F12.3°C 92% Calm Calm 1.0 mph1.6 kmh 30.17 in1021.7 mb 0.01 in0.3 mm 0.03 in0.8 mm 0.01 in0.3 mm
06:00 AM 56.5°F13.6°C 53.9°F12.2°C 91% 1.0 mph N1.6 kmh N 3.0 mph4.8 kmh 30.17 in1021.7 mb 0.00 in0.0 mm 0.00 in0.0 mm 0.00 in0.0 mm
05:40 AM 56.7°F13.7°C 53.8°F12.1°C 90% 2.0 mph NNE3.2 kmh NNE 5.0 mph8.0 kmh 30.17 in1021.7 mb 0.00 in0.0 mm 0.00 in0.0 mm 0.00 in0.0 mm
05:20 AM 56.9°F13.8°C 53.7°F12.1°C 89% 2.0 mph N3.2 kmh N 3.0 mph4.8 kmh 30.18 in1022.0 mb 0.00 in0.0 mm 0.00 in0.0 mm 0.00 in0.0 mm
05:00 AM 57.1°F13.9°C 53.9°F12.2°C 89% 1.0 mph NNE1.6 kmh NNE 4.0 mph6.4 kmh 30.17 in1021.7 mb 0.00 in0.0 mm 0.00 in0.0 mm 0.00 in0.0 mm
04:40 AM 57.0°F13.9°C 53.8°F12.1°C 89% 2.0 mph N3.2 kmh N 5.0 mph8.0 kmh 30.18 in1022.0 mb 0.00 in0.0 mm 0.00 in0.0 mm 0.00 in0.0 mm
04:20 AM 57.0°F13.9°C 53.5°F11.9°C 88% 2.0 mph N3.2 kmh N 5.0 mph8.0 kmh 30.19 in1022.4 mb 0.00 in0.0 mm 0.00 in0.0 mm 0.00 in0.0 mm
04:00 AM 57.1°F13.9°C 53.9°F12.2°C 89% 2.0 mph NNE3.2 kmh NNE 5.0 mph8.0 kmh 30.18 in1022.0 mb 0.00 in0.0 mm 0.00 in0.0 mm 0.00 in0.0 mm
03:40 AM 57.2°F14.0°C 53.7°F12.1°C 88% 2.0 mph NNE3.2 kmh NNE 4.0 mph6.4 kmh 30.18 in1022.0 mb 0.00 in0.0 mm 0.00 in0.0 mm 0.00 in0.0 mm
03:20 AM 57.1°F13.9°C 53.9°F12.2°C 89% 3.0 mph N4.8 kmh N 6.0 mph9.7 kmh 30.18 in1022.0 mb 0.00 in0.0 mm 0.00 in0.0 mm 0.00 in0.0 mm
03:00 AM 57.2°F14.0°C 54.0°F12.2°C 89% 2.0 mph NNE3.2 kmh NNE 4.0 mph6.4 kmh 30.18 in1022.0 mb 0.00 in0.0 mm 0.00 in0.0 mm 0.00 in0.0 mm
02:40 AM 57.1°F13.9°C 53.9°F12.2°C 89% 3.0 mph NNE4.8 kmh NNE 5.0 mph8.0 kmh 30.18 in1022.0 mb 0.00 in0.0 mm 0.00 in0.0 mm 0.00 in0.0 mm
02:20 AM 57.1°F13.9°C 53.9°F12.2°C 89% 2.0 mph N3.2 kmh N 5.0 mph8.0 kmh 30.17 in1021.7 mb 0.00 in0.0 mm 0.00 in0.0 mm 0.00 in0.0 mm
02:00 AM 57.1°F13.9°C 53.9°F12.2°C 89% 2.0 mph NNE3.2 kmh NNE 4.0 mph6.4 kmh 30.18 in1022.0 mb 0.00 in0.0 mm 0.00 in0.0 mm 0.00 in0.0 mm
01:40 AM 57.1°F13.9°C 53.9°F12.2°C 89% 1.0 mph N1.6 kmh N 3.0 mph4.8 kmh 30.18 in1022.0 mb 0.00 in0.0 mm 0.00 in0.0 mm 0.00 in0.0 mm
01:20 AM 57.0°F13.9°C 54.1°F12.3°C 90% 1.0 mph N1.6 kmh N 3.0 mph4.8 kmh 30.19 in1022.4 mb 0.00 in0.0 mm 0.00 in0.0 mm 0.00 in0.0 mm
01:00 AM 57.2°F14.0°C 54.3°F12.4°C 90% 1.0 mph N1.6 kmh N 2.0 mph3.2 kmh 30.20 in1022.7 mb 0.00 in0.0 mm 0.00 in0.0 mm 0.00 in0.0 mm
12:40 AM 57.4°F14.1°C 54.2°F12.3°C 89% 1.0 mph N1.6 kmh N 4.0 mph6.4 kmh 30.18 in1022.0 mb 0.00 in0.0 mm 0.00 in0.0 mm 0.00 in0.0 mm
12:20 AM 57.1°F13.9°C 54.2°F12.3°C 90% 1.0 mph NNE1.6 kmh NNE 3.0 mph4.8 kmh 30.18 in1022.0 mb 0.00 in0.0 mm 0.00 in0.0 mm 0.00 in0.0 mm
12:00 AM 57.4°F14.1°C 54.2°F12.3°C 89% Calm Calm 2.0 mph3.2 kmh 30.18 in1022.0 mb 0.00 in0.0 mm 0.00 in0.0 mm 0.00 in0.0 mm